Time;durP1;ratioP1;P1;durP2;ratioP2;P2;SDS_P1;SDS_P2;PMS_P1;PMS_P2;Temp;Humidity;BMP_temperature;BMP_pressure;BME280_temperature;BME280_humidity;BME280_pressure;Samples;Min_cycle;Max_cycle;Signal;HPM_P1;HPM_P2
2021/11/28 00:00:42;;;;;;;1999.90;336.03;;;3.80;99.90;;;;;;5137046;27;20536;-75
2021/11/28 00:03:11;;;;;;;1999.90;300.40;;;3.80;99.90;;;;;;5136942;27;20472;-75
2021/11/28 00:05:40;;;;;;;1999.90;315.90;;;3.80;99.90;;;;;;5155815;27;20930;-74
2021/11/28 00:08:18;;;;;;;1999.90;999.90;;;3.80;99.90;;;;;;5136850;27;20440;-75
2021/11/28 00:10:55;;;;;;;1999.90;351.90;;;3.80;99.90;;;;;;5137131;27;20870;-75
2021/11/28 00:13:35;;;;;;;1999.90;544.00;;;3.80;99.90;;;;;;5136750;27;20443;-74
2021/11/28 00:16:03;;;;;;;1999.90;288.33;;;3.80;99.90;;;;;;5155704;27;20774;-76
2021/11/28 00:18:32;;;;;;;1999.90;600.33;;;3.80;99.90;;;;;;5136646;27;20460;-75
2021/11/28 00:21:00;;;;;;;1999.90;711.13;;;3.80;99.90;;;;;;5136826;27;20455;-75
2021/11/28 00:23:28;;;;;;;1864.10;703.97;;;3.80;99.90;;;;;;5136948;27;20455;-76
2021/11/28 00:25:57;;;;;;;1999.90;277.97;;;3.70;99.90;;;;;;5136490;27;20549;-74
2021/11/28 00:28:26;;;;;;;1999.90;999.90;;;3.80;99.90;;;;;;5155399;27;20524;-75
2021/11/28 00:30:55;;;;;;;1999.90;364.97;;;3.80;99.90;;;;;;5136307;27;20533;-76
2021/11/28 00:33:24;;;;;;;1999.90;331.53;;;3.70;99.90;;;;;;5154881;27;20457;-76
2021/11/28 00:35:52;;;;;;;1976.53;394.70;;;3.70;99.90;;;;;;5155122;27;20565;-74
2021/11/28 00:38:22;;;;;;;1968.47;418.80;;;3.70;99.90;;;;;;5155056;27;20475;-75
2021/11/28 00:40:50;;;;;;;1999.90;744.20;;;3.70;99.90;;;;;;5136538;27;20659;-75
2021/11/28 00:43:19;;;;;;;1999.90;628.60;;;3.70;99.90;;;;;;5138564;27;20506;-75
2021/11/28 00:45:48;;;;;;;1999.90;193.10;;;3.70;99.90;;;;;;5140650;27;20490;-75
2021/11/28 00:48:17;;;;;;;1999.90;505.00;;;3.70;99.90;;;;;;5140515;27;20543;-75
2021/11/28 00:50:47;;;;;;;1999.90;260.33;;;3.70;99.90;;;;;;5140536;27;20448;-75
2021/11/28 00:53:19;;;;;;;1832.00;258.50;;;3.80;99.90;;;;;;5159150;27;20456;-75
2021/11/28 00:55:47;;;;;;;1999.90;296.10;;;3.70;99.90;;;;;;5141240;27;20456;-75
2021/11/28 00:58:15;;;;;;;1999.90;430.90;;;3.70;99.90;;;;;;5159245;27;20921;-75
2021/11/28 01:00:44;;;;;;;1999.90;454.87;;;3.80;99.90;;;;;;5140636;27;20436;-75
2021/11/28 01:03:14;;;;;;;1999.90;426.30;;;3.70;99.90;;;;;;5140899;27;20507;-75
2021/11/28 01:05:43;;;;;;;1999.90;441.60;;;3.70;99.90;;;;;;5140528;27;20430;-75
2021/11/28 01:08:16;;;;;;;1999.90;999.90;;;3.80;99.90;;;;;;5140409;27;20472;-75
2021/11/28 01:10:45;;;;;;;1999.90;380.93;;;3.70;99.90;;;;;;5140274;27;20442;-75
2021/11/28 01:13:13;;;;;;;1999.90;683.83;;;3.80;99.90;;;;;;5159055;27;20992;-75
2021/11/28 01:15:41;;;;;;;1999.90;561.33;;;3.80;99.90;;;;;;5157170;27;20479;-75
2021/11/28 01:18:09;;;;;;;1999.90;468.30;;;3.80;99.90;;;;;;5140041;27;21001;-76
2021/11/28 01:20:39;;;;;;;1999.90;253.77;;;3.80;99.90;;;;;;5139985;27;20890;-75
2021/11/28 01:23:08;;;;;;;1999.90;504.50;;;3.70;99.90;;;;;;5139822;27;20459;-75
2021/11/28 01:25:36;;;;;;;1999.90;764.53;;;3.80;99.90;;;;;;5139865;27;20878;-74
2021/11/28 01:28:05;;;;;;;1999.90;294.00;;;3.70;99.90;;;;;;5157001;27;20532;-75
2021/11/28 01:30:33;;;;;;;1999.90;223.13;;;3.70;99.90;;;;;;5139732;27;20814;-75
2021/11/28 01:33:01;;;;;;;1999.90;343.33;;;3.70;99.90;;;;;;5139565;27;20475;-75
2021/11/28 01:35:29;;;;;;;1999.90;460.57;;;3.70;99.90;;;;;;5139578;27;20529;-75
2021/11/28 01:37:59;;;;;;;1999.90;221.73;;;3.70;99.90;;;;;;5139579;27;20441;-75
2021/11/28 01:40:28;;;;;;;1999.90;494.20;;;3.70;99.90;;;;;;5139524;27;20481;-75
2021/11/28 01:43:02;;;;;;;1999.90;204.93;;;3.70;99.90;;;;;;5139536;27;20990;-75
2021/11/28 01:45:33;;;;;;;1999.90;485.67;;;3.70;99.90;;;;;;5139504;27;20457;-75
2021/11/28 01:48:03;;;;;;;1999.90;497.50;;;3.80;99.90;;;;;;5139526;27;20437;-75
2021/11/28 01:50:33;;;;;;;1999.90;753.90;;;3.80;99.90;;;;;;5156813;27;20430;-75
2021/11/28 01:53:04;;;;;;;1999.90;293.90;;;3.80;99.90;;;;;;5157646;27;20930;-75
2021/11/28 01:55:35;;;;;;;1999.90;783.90;;;3.80;99.90;;;;;;5139498;27;20460;-75
2021/11/28 01:58:08;;;;;;;1999.90;225.90;;;3.70;99.90;;;;;;5139377;27;20448;-75
2021/11/28 02:00:41;;;;;;;1999.90;480.10;;;3.70;99.90;;;;;;5139957;27;20490;-75
2021/11/28 02:03:11;;;;;;;1999.90;683.70;;;3.70;99.90;;;;;;5139173;27;20502;-75
2021/11/28 02:05:46;;;;;;;1999.90;288.30;;;3.70;99.90;;;;;;5139089;27;20948;-75
2021/11/28 02:08:16;;;;;;;1999.90;354.23;;;3.70;99.90;;;;;;5138979;27;20432;-75
2021/11/28 02:10:45;;;;;;;1943.13;454.67;;;3.80;99.90;;;;;;5138893;27;20490;-75
2021/11/28 02:13:14;;;;;;;1999.90;236.70;;;3.70;99.90;;;;;;5138894;27;20460;-75
2021/11/28 02:15:43;;;;;;;1999.90;431.67;;;3.80;99.90;;;;;;5138856;27;20513;-75
2021/11/28 02:18:12;;;;;;;1999.90;999.90;;;3.70;99.90;;;;;;5138993;27;20519;-75
2021/11/28 02:20:44;;;;;;;1999.90;494.37;;;3.70;99.90;;;;;;5138997;27;20446;-75
2021/11/28 02:23:13;;;;;;;1999.90;275.23;;;3.70;99.90;;;;;;5138936;27;20461;-75
2021/11/28 02:25:42;;;;;;;1999.90;245.10;;;3.70;99.90;;;;;;5138741;27;20442;-75
2021/11/28 02:28:16;;;;;;;1999.90;505.70;;;3.70;99.90;;;;;;5139518;27;20497;-75
2021/11/28 02:30:46;;;;;;;1999.90;350.90;;;3.70;99.90;;;;;;5138494;27;20493;-75
2021/11/28 02:33:14;;;;;;;1999.90;806.43;;;3.70;99.90;;;;;;5138566;27;20509;-75
2021/11/28 02:35:44;;;;;;;1999.90;782.70;;;3.70;99.90;;;;;;5138556;27;20451;-75
2021/11/28 02:38:14;;;;;;;1999.90;216.57;;;3.70;99.90;;;;;;5138440;27;20467;-75
2021/11/28 02:40:43;;;;;;;1999.90;715.53;;;3.70;99.90;;;;;;5138741;27;20453;-76
2021/11/28 02:43:15;;;;;;;1999.90;787.47;;;3.70;99.90;;;;;;5138306;27;20473;-75
2021/11/28 02:45:43;;;;;;;1999.90;999.90;;;3.70;99.90;;;;;;5138347;27;20532;-75
2021/11/28 02:48:15;;;;;;;1704.70;431.70;;;3.70;99.90;;;;;;5138575;27;20498;-76
2021/11/28 02:50:45;;;;;;;1999.90;288.30;;;3.70;99.90;;;;;;5138308;27;20437;-75
2021/11/28 02:53:15;;;;;;;1999.90;610.63;;;3.80;99.90;;;;;;5137965;27;20464;-75
2021/11/28 02:55:45;;;;;;;1999.90;421.20;;;3.70;99.90;;;;;;5138092;27;20449;-75
2021/11/28 02:58:16;;;;;;;1999.90;999.90;;;3.70;99.90;;;;;;5138068;27;20475;-75
2021/11/28 03:00:48;;;;;;;1999.90;820.10;;;3.70;99.90;;;;;;5138865;27;20424;-75
2021/11/28 03:03:17;;;;;;;1979.00;168.80;;;3.80;99.90;;;;;;5138403;27;20552;-75
2021/11/28 03:05:51;;;;;;;1999.90;292.70;;;3.70;99.90;;;;;;5137150;27;20982;-75
2021/11/28 03:08:20;;;;;;;1999.90;797.37;;;3.70;99.90;;;;;;5138905;27;20438;-75
2021/11/28 03:10:51;;;;;;;1999.90;489.20;;;3.80;99.90;;;;;;5137695;27;20439;-75
2021/11/28 03:13:21;;;;;;;1999.90;475.63;;;3.70;99.90;;;;;;5156572;27;20500;-75
2021/11/28 03:15:51;;;;;;;1999.90;493.13;;;3.70;99.90;;;;;;5137717;27;20454;-75
2021/11/28 03:18:22;;;;;;;1999.90;735.93;;;3.70;99.90;;;;;;5138765;27;20509;-75
2021/11/28 03:20:53;;;;;;;1829.20;439.97;;;3.70;99.90;;;;;;5138748;27;20452;-75
2021/11/28 03:23:26;;;;;;;1999.90;466.20;;;3.70;99.90;;;;;;5155464;27;20822;-75
2021/11/28 03:26:05;;;;;;;1999.90;999.90;;;3.80;99.90;;;;;;5137445;27;20445;-75
2021/11/28 03:28:34;;;;;;;1999.90;240.70;;;3.70;99.90;;;;;;5137586;27;20440;-75
2021/11/28 03:31:04;;;;;;;1933.20;427.20;;;3.70;99.90;;;;;;5137212;27;20453;-75
2021/11/28 03:34:13;;;;;;;1996.73;337.37;;;3.70;99.90;;;;;;5155829;27;20426;-75
2021/11/28 03:36:48;;;;;;;1999.47;444.70;;;3.80;99.90;;;;;;5137192;27;20489;-75
2021/11/28 03:39:20;;;;;;;1999.90;284.20;;;3.70;99.90;;;;;;5137790;27;20555;-75
2021/11/28 03:41:51;;;;;;;1999.90;165.63;;;3.70;99.90;;;;;;5137151;27;20497;-75
2021/11/28 03:44:20;;;;;;;1999.90;999.90;;;3.70;99.90;;;;;;5137307;27;20490;-75
2021/11/28 03:47:00;;;;;;;1999.90;268.10;;;3.70;99.90;;;;;;5138037;27;20436;-75
2021/11/28 03:49:29;;;;;;;1999.90;378.70;;;3.70;99.90;;;;;;5137123;27;20439;-75
2021/11/28 03:52:00;;;;;;;1999.90;801.30;;;3.70;99.90;;;;;;5137150;27;20472;-75
2021/11/28 03:54:29;;;;;;;1999.90;687.47;;;3.70;99.90;;;;;;5137035;27;20445;-75
2021/11/28 03:56:57;;;;;;;1719.07;113.70;;;3.70;99.90;;;;;;5136878;27;20464;-75
2021/11/28 03:59:27;;;;;;;1999.90;550.80;;;3.70;99.90;;;;;;5137253;27;20445;-75
2021/11/28 04:01:56;;;;;;;1999.90;829.87;;;3.70;99.90;;;;;;5136932;27;20555;-75
2021/11/28 04:04:24;;;;;;;1999.90;999.90;;;3.70;99.90;;;;;;5154174;27;20516;-75
2021/11/28 04:07:12;;;;;;;1999.90;266.93;;;3.70;99.90;;;;;;5155814;27;20413;-75
2021/11/28 04:09:42;;;;;;;1999.90;263.57;;;3.70;99.90;;;;;;5136816;27;20434;-75
2021/11/28 04:12:12;;;;;;;1999.90;454.63;;;3.70;99.90;;;;;;5136828;27;20463;-75
2021/11/28 04:14:41;;;;;;;1999.90;999.90;;;3.70;99.90;;;;;;5136714;27;20512;-75
2021/11/28 04:17:10;;;;;;;1999.90;152.37;;;3.70;99.90;;;;;;5136349;27;20558;-75
2021/11/28 04:19:44;;;;;;;1968.70;355.50;;;3.60;99.90;;;;;;5136681;27;20485;-75
2021/11/28 04:22:13;;;;;;;1999.90;999.90;;;3.70;99.90;;;;;;5137084;27;20457;-75
2021/11/28 04:24:43;;;;;;;1999.90;321.90;;;3.60;99.90;;;;;;5136930;27;20434;-75
2021/11/28 04:27:11;;;;;;;1922.33;244.00;;;3.60;99.90;;;;;;5155208;27;20953;-75
2021/11/28 04:29:40;;;;;;;1999.90;532.50;;;3.60;99.90;;;;;;5136851;27;20441;-75
2021/11/28 04:32:08;;;;;;;1999.90;999.90;;;3.60;99.90;;;;;;5136263;27;20532;-75
2021/11/28 04:34:45;;;;;;;1999.90;474.80;;;3.60;99.90;;;;;;5137599;27;20467;-75
2021/11/28 04:37:14;;;;;;;1999.90;721.00;;;3.60;99.90;;;;;;5136616;27;20469;-75
2021/11/28 04:39:43;;;;;;;1999.90;739.67;;;3.60;99.90;;;;;;5136566;27;20436;-75
2021/11/28 04:42:12;;;;;;;1999.90;382.60;;;3.60;99.90;;;;;;5136489;27;20467;-75
2021/11/28 04:44:40;;;;;;;1995.23;192.20;;;3.60;99.90;;;;;;5136772;27;20444;-75
2021/11/28 04:47:08;;;;;;;1999.90;724.07;;;3.60;99.90;;;;;;5136443;27;20479;-75
2021/11/28 04:49:37;;;;;;;1999.90;283.40;;;3.60;99.90;;;;;;5136785;27;20447;-75
2021/11/28 04:52:07;;;;;;;1999.90;356.43;;;3.60;99.90;;;;;;5136172;27;20570;-75
2021/11/28 04:54:36;;;;;;;1999.90;525.57;;;3.50;99.90;;;;;;5136386;27;20446;-75
2021/11/28 04:57:05;;;;;;;1999.90;511.60;;;3.50;99.90;;;;;;5136172;27;20982;-75
2021/11/28 04:59:33;;;;;;;1999.90;494.27;;;3.50;99.90;;;;;;5136365;27;20448;-75
2021/11/28 05:02:01;;;;;;;1999.90;835.00;;;3.50;99.90;;;;;;5136253;27;20464;-75
2021/11/28 05:04:30;;;;;;;1999.90;330.20;;;3.50;99.90;;;;;;5136203;27;20988;-75
2021/11/28 05:07:30;;;;;;;1364.00;198.87;;;3.50;99.90;;;;;;5131438;27;20468;-75
2021/11/28 05:10:00;;;;;;;1555.83;216.90;;;3.50;99.90;;;;;;5136432;27;20985;-75
2021/11/28 05:12:38;;;;;;;1999.90;424.37;;;3.50;99.90;;;;;;5153735;27;20554;-75
2021/11/28 05:15:07;;;;;;;1999.90;270.67;;;3.50;99.90;;;;;;5136183;27;20531;-75
2021/11/28 05:17:41;;;;;;;1999.90;444.87;;;3.50;99.90;;;;;;5136662;27;20460;-75
2021/11/28 05:20:11;;;;;;;1999.90;330.17;;;3.50;99.90;;;;;;5136772;27;20450;-75
2021/11/28 05:22:45;;;;;;;1999.90;312.27;;;3.50;99.90;;;;;;5136054;27;20465;-75
2021/11/28 05:25:15;;;;;;;1999.90;577.87;;;3.50;99.90;;;;;;5136486;27;20514;-75
2021/11/28 05:27:46;;;;;;;1999.90;427.17;;;3.50;99.90;;;;;;5136055;27;20947;-75
2021/11/28 05:30:16;;;;;;;1999.90;320.10;;;3.50;99.90;;;;;;5140111;27;20838;-75
2021/11/28 05:33:09;;;;;;;1999.90;321.33;;;3.50;99.90;;;;;;5158301;27;20461;-75
2021/11/28 05:36:04;;;;;;;1589.33;231.80;;;3.50;99.90;;;;;;5158179;27;20445;-75
2021/11/28 05:38:52;;;;;;;1999.90;590.93;;;3.40;99.90;;;;;;5157372;27;20453;-75
2021/11/28 05:41:22;;;;;;;1999.90;348.13;;;3.50;99.90;;;;;;5139442;27;20977;-75
2021/11/28 05:43:51;;;;;;;1999.90;345.13;;;3.50;99.90;;;;;;5139621;27;20470;-74
2021/11/28 05:46:19;;;;;;;1999.90;433.03;;;3.40;99.90;;;;;;5139471;27;20851;-75
2021/11/28 05:49:21;;;;;;;1845.00;320.50;;;3.40;99.90;;;;;;5139725;27;20449;-75
2021/11/28 05:52:09;;;;;;;1564.60;251.63;;;3.40;99.90;;;;;;5140067;27;20461;-75
2021/11/28 05:54:38;;;;;;;1999.90;758.80;;;3.40;99.90;;;;;;5139426;27;20451;-75
2021/11/28 05:57:07;;;;;;;1999.90;318.17;;;3.40;99.90;;;;;;5139268;27;20442;-75
2021/11/28 05:59:36;;;;;;;1999.90;441.77;;;3.50;99.90;;;;;;5139272;27;20465;-75
2021/11/28 06:02:04;;;;;;;1999.90;361.63;;;3.40;99.90;;;;;;5139046;27;20990;-75
2021/11/28 06:04:34;;;;;;;1999.90;740.70;;;3.40;99.90;;;;;;5139166;27;20460;-75
2021/11/28 06:07:20;;;;;;;1612.23;227.27;;;3.40;99.90;;;;;;5157937;27;20490;-75
2021/11/28 06:09:48;;;;;;;1999.90;213.33;;;3.40;99.90;;;;;;5138938;27;20450;-75
2021/11/28 06:12:22;;;;;;;1999.90;469.50;;;3.40;99.90;;;;;;5139662;27;20460;-75
2021/11/28 06:14:50;;;;;;;1999.90;779.67;;;3.40;99.90;;;;;;5139770;27;20451;-75
2021/11/28 06:17:20;;;;;;;1999.90;499.87;;;3.40;99.90;;;;;;5138943;27;20871;-75
2021/11/28 06:20:14;;;;;;;1746.40;317.53;;;3.40;99.90;;;;;;5157547;27;20434;-75
2021/11/28 06:23:00;;;;;;;1999.90;308.27;;;3.40;99.90;;;;;;5138878;27;20460;-75
2021/11/28 06:25:30;;;;;;;1905.80;331.80;;;3.40;99.90;;;;;;5138760;27;20454;-74
2021/11/28 06:28:19;;;;;;;1999.90;365.03;;;3.50;99.90;;;;;;5138896;27;20460;-75
2021/11/28 06:30:47;;;;;;;1999.90;999.90;;;3.50;99.90;;;;;;5138484;27;20451;-75
2021/11/28 06:33:16;;;;;;;1999.90;456.20;;;3.50;99.90;;;;;;5157741;27;20448;-75
2021/11/28 06:36:02;;;;;;;1999.90;645.17;;;3.50;99.90;;;;;;5157134;27;20424;-75
2021/11/28 06:38:50;;;;;;;1999.90;432.27;;;3.50;99.90;;;;;;5157189;27;20452;-75
2021/11/28 06:41:38;;;;;;;1999.90;525.13;;;3.50;99.90;;;;;;5142362;27;20514;-75
2021/11/28 06:44:08;;;;;;;1999.90;449.20;;;3.50;99.90;;;;;;5138857;27;20446;-75
2021/11/28 06:46:37;;;;;;;1999.90;261.97;;;3.50;99.90;;;;;;5138326;27;20486;-75
2021/11/28 06:49:06;;;;;;;1959.03;160.77;;;3.50;99.90;;;;;;5138023;27;20470;-75
2021/11/28 06:51:34;;;;;;;1999.90;708.30;;;3.50;99.90;;;;;;5156693;27;20804;-75
2021/11/28 06:54:11;;;;;;;1999.90;417.30;;;3.50;99.90;;;;;;5138148;27;20428;-75
2021/11/28 06:56:48;;;;;;;1977.77;255.50;;;3.50;99.90;;;;;;5138695;27;20520;-75
2021/11/28 06:59:20;;;;;;;1998.00;173.67;;;3.50;99.90;;;;;;5137895;27;20468;-75
2021/11/28 07:01:49;;;;;;;1999.90;537.23;;;3.50;99.90;;;;;;5138595;27;20542;-75
2021/11/28 07:04:34;;;;;;;1994.10;371.83;;;3.50;99.90;;;;;;5156078;27;20768;-75
2021/11/28 07:07:41;;;;;;;1999.90;351.00;;;3.50;99.90;;;;;;5148315;27;20451;-75
2021/11/28 07:10:11;;;;;;;1999.90;299.90;;;3.60;99.90;;;;;;5138864;27;20440;-75
2021/11/28 07:12:40;;;;;;;1996.93;424.67;;;3.50;99.90;;;;;;5137920;27;20491;-75
2021/11/28 07:15:19;;;;;;;1999.90;742.30;;;3.50;99.90;;;;;;5137818;27;20435;-75
2021/11/28 07:17:48;;;;;;;1999.90;760.30;;;3.60;99.90;;;;;;5137554;27;20942;-75
2021/11/28 07:20:45;;;;;;;1985.97;335.70;;;3.50;99.90;;;;;;5155979;27;20429;-75
2021/11/28 07:23:13;;;;;;;1999.90;232.97;;;3.60;99.90;;;;;;5154900;27;20457;-75
2021/11/28 07:25:42;;;;;;;1999.90;474.30;;;3.60;99.90;;;;;;5137637;27;20452;-75
2021/11/28 07:28:22;;;;;;;1999.90;999.90;;;3.60;99.90;;;;;;5137715;27;20448;-75
2021/11/28 07:30:51;;;;;;;1999.90;743.70;;;3.60;99.90;;;;;;5137488;27;20448;-75
2021/11/28 07:33:52;;;;;;;1999.90;460.70;;;3.60;99.90;;;;;;5155859;27;20440;-75
2021/11/28 07:36:39;;;;;;;1988.10;377.23;;;3.60;99.90;;;;;;5156303;27;20432;-75
2021/11/28 07:39:08;;;;;;;1999.90;452.07;;;3.60;99.90;;;;;;5138436;27;20508;-75
2021/11/28 07:41:37;;;;;;;1999.90;999.90;;;3.60;99.90;;;;;;5138035;27;21011;-74
2021/11/28 07:44:24;;;;;;;1999.90;999.90;;;3.60;99.90;;;;;;5156391;27;20428;-75
2021/11/28 07:47:12;;;;;;;1999.90;262.07;;;3.70;99.90;;;;;;5156674;27;20455;-75
2021/11/28 07:50:11;;;;;;;1999.90;431.30;;;3.70;99.90;;;;;;5155747;27;20788;-75
2021/11/28 07:52:40;;;;;;;1999.90;999.90;;;3.70;99.90;;;;;;5154032;27;20832;-74
2021/11/28 07:55:14;;;;;;;1695.70;420.03;;;3.70;99.90;;;;;;5137574;27;20482;-75
2021/11/28 07:57:57;;;;;;;1999.90;299.67;;;3.70;99.90;;;;;;5155528;27;20491;-75
2021/11/28 08:00:42;;;;;;;1999.90;405.87;;;3.70;99.90;;;;;;5137008;27;20425;-75
2021/11/28 08:03:27;;;;;;;1999.90;999.90;;;3.70;99.90;;;;;;5137090;27;20442;-75
2021/11/28 08:06:14;;;;;;;1999.90;770.70;;;3.70;99.90;;;;;;5155950;27;20495;-75
2021/11/28 08:08:47;;;;;;;1999.90;494.17;;;3.70;99.90;;;;;;5137146;27;20449;-75
2021/11/28 08:11:31;;;;;;;1999.90;459.47;;;3.80;99.90;;;;;;5136719;27;20468;-75
2021/11/28 08:13:59;;;;;;;1999.90;999.90;;;3.80;99.90;;;;;;5136804;27;20448;-75
2021/11/28 08:16:28;;;;;;;1999.90;709.77;;;3.80;99.90;;;;;;5136794;27;20449;-75
2021/11/28 08:18:58;;;;;;;1999.90;999.90;;;3.80;99.90;;;;;;5155675;27;20849;-75
2021/11/28 08:21:27;;;;;;;1999.90;999.90;;;3.80;99.90;;;;;;5136511;27;20459;-75
2021/11/28 08:23:56;;;;;;;1999.90;696.67;;;3.80;99.90;;;;;;5155283;27;20878;-75
2021/11/28 08:26:27;;;;;;;1999.90;999.90;;;3.80;99.90;;;;;;5136624;27;20427;-75
2021/11/28 08:28:56;;;;;;;1999.90;999.90;;;3.90;99.90;;;;;;5155294;27;20433;-75
2021/11/28 08:31:25;;;;;;;1999.90;999.90;;;3.90;99.90;;;;;;5136425;27;20504;-75
2021/11/28 08:34:15;;;;;;;1999.90;740.23;;;3.90;99.90;;;;;;5113044;27;20441;-75
2021/11/28 08:36:56;;;;;;;1999.90;999.90;;;3.90;99.90;;;;;;5136515;27;20943;-75
2021/11/28 08:39:25;;;;;;;1999.90;999.90;;;3.90;99.90;;;;;;5136474;27;21002;-75
2021/11/28 08:41:54;;;;;;;1999.90;999.90;;;3.90;99.90;;;;;;5155018;27;20513;-75
2021/11/28 08:44:22;;;;;;;1999.90;679.07;;;4.00;99.90;;;;;;5155428;27;20505;-75
2021/11/28 08:46:50;;;;;;;1999.90;699.80;;;4.00;99.90;;;;;;5136518;27;20465;-75
2021/11/28 08:49:20;;;;;;;1999.90;999.90;;;4.00;99.90;;;;;;5154831;27;20933;-75
2021/11/28 08:51:49;;;;;;;1999.90;999.90;;;4.00;99.90;;;;;;5136172;27;20465;-75
2021/11/28 08:54:17;;;;;;;1999.90;670.13;;;4.00;99.90;;;;;;5136405;27;20448;-75
2021/11/28 08:56:50;;;;;;;1425.50;502.30;;;4.00;99.90;;;;;;5136242;27;20629;-74
2021/11/28 08:59:18;;;;;;;1999.90;685.13;;;4.10;99.90;;;;;;5136220;27;20463;-74
2021/11/28 09:01:46;;;;;;;1596.30;699.13;;;4.10;99.90;;;;;;5136301;27;20612;-74
2021/11/28 09:04:14;;;;;;;1999.90;999.90;;;4.10;99.90;;;;;;5138038;27;20446;-74
2021/11/28 09:06:44;;;;;;;1999.90;999.90;;;4.10;99.90;;;;;;5159194;27;20436;-74
2021/11/28 09:09:12;;;;;;;1845.50;567.07;;;4.20;99.90;;;;;;5159029;27;20441;-74
2021/11/28 09:11:41;;;;;;;1237.70;393.93;;;4.20;99.90;;;;;;5158593;27;20510;-74
2021/11/28 09:14:09;;;;;;;1317.83;463.90;;;4.20;99.90;;;;;;5158760;27;20462;-74
2021/11/28 09:16:37;;;;;;;1999.90;577.67;;;4.20;99.90;;;;;;5158651;27;20431;-76
2021/11/28 09:19:10;;;;;;;1233.20;426.17;;;4.20;99.90;;;;;;5158708;27;20832;-74
2021/11/28 09:21:39;;;;;;;1999.90;999.90;;;4.30;99.90;;;;;;5140154;27;20552;-74
2021/11/28 09:27:09;;;;;;;1999.90;635.87;;;4.30;99.90;;;;;;5077745;28;20472;-74
2021/11/28 09:29:42;;;;;;;1999.90;999.90;;;4.30;99.90;;;;;;5126886;27;20459;-74
2021/11/28 09:32:11;;;;;;;1999.90;999.90;;;4.30;99.90;;;;;;5158627;27;21047;-74
2021/11/28 09:34:39;;;;;;;1967.70;559.67;;;4.30;99.90;;;;;;5158718;27;20539;-74
2021/11/28 09:37:10;;;;;;;1999.90;699.73;;;4.30;99.90;;;;;;5139759;27;20538;-74
2021/11/28 09:39:44;;;;;;;1999.90;999.90;;;4.30;99.90;;;;;;5158138;27;20453;-74
2021/11/28 09:42:13;;;;;;;1541.80;481.87;;;4.40;99.90;;;;;;5158262;27;20449;-74
2021/11/28 09:44:43;;;;;;;1999.90;999.90;;;4.40;99.90;;;;;;5139764;27;20449;-74
2021/11/28 09:47:12;;;;;;;1999.90;590.90;;;4.40;99.90;;;;;;5139898;27;20434;-74
2021/11/28 09:49:44;;;;;;;1999.90;368.27;;;4.40;99.90;;;;;;5158382;27;20792;-74
2021/11/28 09:52:15;;;;;;;1999.90;999.90;;;4.50;99.90;;;;;;5139273;27;20465;-74
2021/11/28 09:54:47;;;;;;;1999.90;587.87;;;4.50;99.90;;;;;;5139662;27;20839;-74
2021/11/28 09:57:17;;;;;;;1999.90;511.17;;;4.50;99.90;;;;;;5140108;27;20494;-74
2021/11/28 09:59:47;;;;;;;1999.90;999.90;;;4.50;99.90;;;;;;5139482;27;21015;-74
2021/11/28 10:02:20;;;;;;;1434.80;469.37;;;4.50;99.90;;;;;;5139410;27;20474;-74
2021/11/28 10:04:49;;;;;;;1999.90;562.93;;;4.50;99.90;;;;;;5139371;27;20429;-74
2021/11/28 10:07:18;;;;;;;1999.90;537.00;;;4.50;99.90;;;;;;5140229;27;20441;-74
2021/11/28 10:09:48;;;;;;;1999.90;597.80;;;4.60;99.90;;;;;;5139517;27;20441;-74
2021/11/28 10:12:22;;;;;;;1999.90;559.97;;;4.60;99.90;;;;;;5139143;27;20827;-74
2021/11/28 10:14:53;;;;;;;1999.90;705.50;;;4.60;99.90;;;;;;5157716;27;20434;-74
2021/11/28 10:17:23;;;;;;;1999.90;342.63;;;4.60;99.90;;;;;;5138981;27;20936;-74
2021/11/28 10:19:52;;;;;;;1987.20;513.93;;;4.70;99.90;;;;;;5157590;27;20458;-74
2021/11/28 10:22:21;;;;;;;1898.07;519.83;;;4.70;99.90;;;;;;5138954;27;20500;-74
2021/11/28 10:25:02;;;;;;;1802.07;459.83;;;4.70;99.90;;;;;;5157887;27;20837;-74
2021/11/28 10:27:40;;;;;;;1999.90;775.73;;;4.80;99.90;;;;;;5157657;27;20414;-75
2021/11/28 10:30:15;;;;;;;1999.90;722.40;;;4.80;99.90;;;;;;5157389;27;20422;-76
2021/11/28 10:32:50;;;;;;;1999.90;999.90;;;4.80;99.90;;;;;;5138469;27;20527;-76
2021/11/28 10:35:19;;;;;;;1999.90;708.97;;;4.80;99.90;;;;;;5138544;27;20808;-76
2021/11/28 10:37:51;;;;;;;1999.90;694.53;;;4.80;99.90;;;;;;5157136;27;20469;-76
2021/11/28 10:40:22;;;;;;;1999.90;704.77;;;4.80;99.90;;;;;;5138501;27;20495;-75
2021/11/28 10:43:05;;;;;;;1999.90;687.57;;;4.80;99.90;;;;;;5138420;27;20561;-76
2021/11/28 10:45:37;;;;;;;1999.90;580.20;;;4.80;99.90;;;;;;5138413;27;20433;-76
2021/11/28 10:48:08;;;;;;;1999.90;645.60;;;4.80;99.90;;;;;;5139181;27;20441;-76
2021/11/28 10:50:38;;;;;;;1999.90;612.90;;;4.80;99.90;;;;;;5157354;27;20474;-76
2021/11/28 10:53:09;;;;;;;1999.90;999.90;;;4.90;99.90;;;;;;5138375;27;20457;-75
2021/11/28 10:55:42;;;;;;;1999.90;722.40;;;4.90;99.90;;;;;;5138229;27;20444;-75
2021/11/28 10:58:13;;;;;;;1999.90;699.30;;;4.90;99.90;;;;;;5157347;27;20846;-76
2021/11/28 11:01:02;;;;;;;1999.90;682.50;;;5.00;99.90;;;;;;5138078;27;20552;-76
2021/11/28 11:03:33;;;;;;;1999.90;616.50;;;5.00;99.90;;;;;;5156679;27;20418;-74
2021/11/28 11:06:14;;;;;;;1999.90;609.20;;;5.00;99.90;;;;;;5156878;27;20442;-75
2021/11/28 11:08:43;;;;;;;1999.90;999.90;;;5.00;99.90;;;;;;5139336;27;20839;-76
2021/11/28 11:11:15;;;;;;;1999.90;586.00;;;5.00;99.90;;;;;;5137907;27;20880;-76
2021/11/28 11:13:56;;;;;;;1999.90;587.73;;;5.00;99.90;;;;;;5137828;27;20888;-76
2021/11/28 11:16:32;;;;;;;1999.90;631.93;;;5.00;99.90;;;;;;5138722;27;20833;-75
2021/11/28 11:19:26;;;;;;;1999.90;531.83;;;5.00;99.90;;;;;;5137736;27;20457;-75
2021/11/28 11:22:02;;;;;;;1999.90;999.90;;;5.00;99.90;;;;;;5137533;27;20473;-76
2021/11/28 11:24:31;;;;;;;1999.90;573.73;;;5.10;99.90;;;;;;5137765;27;20433;-75
2021/11/28 11:27:11;;;;;;;1999.90;601.00;;;5.10;99.90;;;;;;5138612;27;20966;-72
2021/11/28 11:29:41;;;;;;;1999.90;999.90;;;5.10;99.90;;;;;;5156705;27;20513;-74
2021/11/28 11:32:12;;;;;;;1999.90;547.07;;;5.20;99.90;;;;;;5137910;27;20484;-74
2021/11/28 11:34:47;;;;;;;1999.90;550.63;;;5.20;99.90;;;;;;5137466;27;20903;-76
2021/11/28 11:37:17;;;;;;;1999.90;395.93;;;5.20;99.90;;;;;;5156339;27;20429;-75
2021/11/28 11:39:47;;;;;;;1999.90;999.90;;;5.20;99.90;;;;;;5156640;27;20414;-75
2021/11/28 11:42:21;;;;;;;1999.90;569.00;;;5.20;99.90;;;;;;5138552;27;20478;-75
2021/11/28 11:44:50;;;;;;;1999.90;999.90;;;5.20;99.90;;;;;;5172156;27;20414;-75
2021/11/28 11:47:19;;;;;;;1999.90;789.97;;;5.20;99.90;;;;;;5175986;27;20472;-75
2021/11/28 11:49:48;;;;;;;1999.90;999.90;;;5.20;99.90;;;;;;5159812;27;20538;-75
2021/11/28 11:52:18;;;;;;;1999.90;999.90;;;5.20;99.90;;;;;;5177786;27;20473;-75
2021/11/28 11:54:48;;;;;;;1999.90;999.90;;;5.10;99.90;;;;;;5155211;27;20436;-75
2021/11/28 11:57:34;;;;;;;1999.90;765.80;;;5.10;99.90;;;;;;5151145;27;20430;-75
2021/11/28 12:00:09;;;;;;;1999.90;999.90;;;5.10;99.90;;;;;;5158010;27;20485;-75
2021/11/28 12:02:42;;;;;;;1999.90;999.90;;;5.20;99.90;;;;;;5169739;27;20495;-75
2021/11/28 12:05:46;;;;;;;1997.67;555.17;;;5.20;99.90;;;;;;5147867;27;20437;-75
2021/11/28 12:08:25;;;;;;;1999.90;999.90;;;5.20;99.90;;;;;;5150101;27;20449;-75
2021/11/28 12:11:07;;;;;;;1892.03;730.77;;;5.20;99.90;;;;;;5164160;27;20410;-76
2021/11/28 12:13:58;;;;;;;1360.53;206.27;;;5.20;99.90;;;;;;5156313;27;20417;-75
2021/11/28 12:16:34;;;;;;;1999.90;999.90;;;5.20;99.90;;;;;;5137144;27;20795;-75
2021/11/28 12:19:02;;;;;;;1999.90;999.90;;;5.20;99.90;;;;;;5155613;27;20943;-75
2021/11/28 12:21:40;;;;;;;1999.90;999.90;;;5.20;99.90;;;;;;5136504;27;20465;-76
2021/11/28 12:24:10;;;;;;;1999.90;999.90;;;5.10;99.90;;;;;;5136622;27;20809;-76
2021/11/28 12:26:46;;;;;;;1999.90;999.90;;;5.20;99.90;;;;;;5154960;27;20444;-76
2021/11/28 12:29:39;;;;;;;1999.90;999.90;;;5.20;99.90;;;;;;5136616;27;20433;-76
2021/11/28 12:32:26;;;;;;;1999.90;999.90;;;5.20;99.90;;;;;;5138171;27;20900;-75
2021/11/28 12:35:09;;;;;;;1999.90;999.90;;;5.20;99.90;;;;;;5136926;27;20990;-76
2021/11/28 12:37:48;;;;;;;1999.90;999.90;;;5.30;99.90;;;;;;5135693;27;20980;-76
2021/11/28 12:40:31;;;;;;;1965.80;536.23;;;5.30;99.90;;;;;;5140854;27;20429;-75